Time;durP1;ratioP1;P1;durP2;ratioP2;P2;SDS_P1;SDS_P2;PMS_P1;PMS_P2;Temp;Humidity;BMP_temperature;BMP_pressure;BME280_temperature;BME280_humidity;BME280_pressure;Samples;Min_cycle;Max_cycle;Signal;HPM_P1;HPM_P2
2022/02/02 00:03:55;;;;;;;70.87;66.00;;;;;;;11.57;100.00;102287.69;1842162;76;85542;-71
2022/02/02 00:09:40;;;;;;;71.87;66.87;;;;;;;11.62;100.00;102291.09;1903807;73;86473;-77
2022/02/02 00:15:41;;;;;;;71.13;66.00;;;;;;;11.67;100.00;102293.95;1916676;73;85964;-76
2022/02/02 00:21:23;;;;;;;69.57;64.83;;;;;;;11.62;100.00;102296.66;1915063;73;86677;-77
2022/02/02 00:27:07;;;;;;;71.90;67.20;;;;;;;11.58;100.00;102283.81;1980968;71;39703;-78
2022/02/02 00:33:18;;;;;;;70.67;65.90;;;;;;;11.46;100.00;102274.74;1853834;76;86599;-78
2022/02/02 00:38:58;;;;;;;72.00;66.93;;;;;;;11.35;100.00;102282.08;1845147;76;85371;-76
2022/02/02 00:44:47;;;;;;;72.30;67.43;;;;;;;11.23;100.00;102276.33;1808093;78;85630;-71
2022/02/02 00:50:29;;;;;;;73.90;68.97;;;;;;;11.23;100.00;102273.55;1904808;74;86313;-78
2022/02/02 00:56:13;;;;;;;74.43;69.27;;;;;;;11.19;100.00;102280.17;1920396;72;86465;-71
2022/02/02 01:01:57;;;;;;;70.87;65.87;;;;;;;11.13;100.00;102277.55;1954652;71;86369;-76
2022/02/02 01:08:04;;;;;;;67.90;62.77;;;;;;;11.21;100.00;102292.45;1876063;74;86597;-77
2022/02/02 01:19:59;;;;;;;70.97;65.90;;;;;;;11.19;100.00;102293.23;1848069;76;85707;-71
2022/02/02 01:31:45;;;;;;;71.17;65.83;;;;;;;11.19;100.00;102296.86;1882640;75;86439;-78
2022/02/02 01:37:30;;;;;;;70.53;65.23;;;;;;;11.18;100.00;102304.06;1882685;75;86287;-70
2022/02/02 01:43:19;;;;;;;75.80;70.60;;;;;;;11.17;100.00;102302.36;1922524;72;86624;-71
2022/02/02 01:49:56;;;;;;;72.90;67.53;;;;;;;11.09;100.00;102296.69;1977526;71;39602;-70
2022/02/02 01:54:55;;;;;;;70.50;65.17;;;;;;;11.09;100.00;102283.33;1845079;76;86249;-78
2022/02/02 02:00:38;;;;;;;71.37;65.93;;;;;;;11.10;100.00;102276.67;1885150;73;86231;-71
2022/02/02 02:06:21;;;;;;;72.67;67.47;;;;;;;11.07;100.00;102275.80;1936700;73;86379;-76
2022/02/02 02:12:09;;;;;;;71.83;66.93;;;;;;;11.04;100.00;102284.09;1986230;71;39568;-70
2022/02/02 02:17:53;;;;;;;75.07;69.97;;;;;;;11.13;100.00;102302.03;1841609;76;85488;-77
2022/02/02 02:23:37;;;;;;;70.50;65.40;;;;;;;11.19;100.00;102289.91;1865480;75;86448;-78
2022/02/02 02:29:38;;;;;;;74.17;69.17;;;;;;;11.22;100.00;102293.56;1932477;73;85444;-78
2022/02/02 02:59:47;;;;;;;72.03;67.07;;;;;;;11.25;100.00;102285.27;1802382;78;85714;-71
2022/02/02 04:00:11;;;;;;;72.83;67.73;;;;;;;10.87;100.00;102279.92;1853944;76;86394;-71
2022/02/02 04:05:38;;;;;;;72.77;67.50;;;;;;;10.85;100.00;102272.40;1869535;75;86495;-70
2022/02/02 04:11:25;;;;;;;72.40;67.30;;;;;;;10.78;100.00;102253.63;1910515;74;86221;-71
2022/02/02 04:59:50;;;;;;;67.53;62.63;;;;;;;10.73;100.00;102218.83;1892508;72;86148;-71
2022/02/02 05:05:46;;;;;;;64.87;60.27;;;;;;;10.75;100.00;102245.81;1916717;74;86217;-71
2022/02/02 05:11:48;;;;;;;67.40;62.57;;;;;;;10.75;100.00;102272.76;1908255;73;86095;-71
2022/02/02 05:17:28;;;;;;;71.03;66.13;;;;;;;10.70;100.00;102290.19;1910802;74;86195;-81
2022/02/02 05:53:36;;;;;;;70.47;65.57;;;;;;;10.63;100.00;102317.84;1881191;73;85985;-70
2022/02/02 05:59:24;;;;;;;72.87;67.77;;;;;;;10.54;100.00;102298.50;1925449;71;86612;-78
2022/02/02 06:05:09;;;;;;;65.73;61.00;;;;;;;10.51;100.00;102306.80;1980526;71;39680;-71
2022/02/02 06:10:55;;;;;;;64.40;59.70;;;;;;;10.50;100.00;102305.95;1878724;75;86839;-71
2022/02/02 06:19:56;;;;;;;66.50;61.73;;;;;;;10.42;100.00;102303.58;1838396;76;86216;-76
2022/02/02 06:25:42;;;;;;;61.87;57.30;;;;;;;10.38;100.00;102306.56;1870768;75;86676;-72
2022/02/02 06:31:30;;;;;;;68.63;63.93;;;;;;;10.33;100.00;102288.95;1905113;72;86344;-77
2022/02/02 06:37:16;;;;;;;68.83;64.17;;;;;;;10.28;100.00;102284.67;1911706;74;85449;-70
2022/02/02 06:43:00;;;;;;;69.13;64.40;;;;;;;10.20;100.00;102299.81;1949485;71;40166;-75
2022/02/02 06:48:45;;;;;;;67.43;62.73;;;;;;;10.19;100.00;102306.98;1886809;74;86325;-71
2022/02/02 07:04:35;;;;;;;64.03;59.53;;;;;;;10.05;100.00;102313.36;2019218;70;86203;-73
2022/02/02 07:10:19;;;;;;;69.37;64.47;;;;;;;10.05;100.00;102309.20;1976606;71;39761;-76
2022/02/02 07:16:13;;;;;;;70.63;65.67;;;;;;;9.96;100.00;102323.16;1987272;71;40523;-75
2022/02/02 07:22:06;;;;;;;67.77;63.07;;;;;;;9.88;100.00;102331.30;1849134;76;86193;-78
2022/02/02 07:27:49;;;;;;;67.30;62.70;;;;;;;9.82;100.00;102350.88;1883898;73;86360;-77
2022/02/02 07:33:38;;;;;;;71.40;66.53;;;;;;;9.75;100.00;102361.27;1885999;74;86645;-79
2022/02/02 07:39:23;;;;;;;69.87;64.83;;;;;;;9.73;100.00;102366.20;1910302;72;86259;-69
2022/02/02 07:45:12;;;;;;;69.37;64.47;;;;;;;9.72;100.00;102378.39;1967955;71;40019;-78
2022/02/02 07:50:58;;;;;;;71.80;66.80;;;;;;;9.74;100.00;102385.41;1954294;72;86443;-68
2022/02/02 07:56:47;;;;;;;68.00;63.30;;;;;;;9.68;100.00;102402.16;1826987;75;86386;-73
2022/02/02 08:02:45;;;;;;;72.73;67.73;;;;;;;9.67;100.00;102408.24;1878211;75;86648;-74
2022/02/02 08:08:33;;;;;;;70.60;65.67;;;;;;;9.65;100.00;102415.98;1907556;72;86348;-74
2022/02/02 08:14:15;;;;;;;71.70;66.40;;;;;;;9.69;100.00;102419.12;1916112;74;86004;-70
2022/02/02 08:20:00;;;;;;;70.20;65.10;;;;;;;9.75;100.00;102419.55;1891631;74;86619;-70
2022/02/02 08:25:44;;;;;;;74.03;68.73;;;;;;;9.73;100.00;102404.52;1809284;78;86414;-67
2022/02/02 08:31:29;;;;;;;73.90;68.73;;;;;;;9.77;100.00;102407.65;1911264;72;86535;-77
2022/02/02 08:37:14;;;;;;;74.63;69.43;;;;;;;9.81;100.00;102413.86;1819885;78;86631;-75
2022/02/02 08:43:07;;;;;;;75.20;70.00;;;;;;;9.96;100.00;102410.06;1802740;78;86607;-74
2022/02/02 08:48:51;;;;;;;77.87;72.53;;;;;;;9.99;100.00;102405.41;1846326;76;86592;-75
2022/02/02 08:54:44;;;;;;;69.07;64.50;;;;;;;10.14;100.00;102408.23;1869940;75;86675;-69
2022/02/02 09:00:24;;;;;;;68.13;63.53;;;;;;;10.23;100.00;102414.55;1929386;73;86305;-68
2022/02/02 09:06:06;;;;;;;67.17;62.57;;;;;;;10.44;100.00;102400.00;1980894;71;39675;-67
2022/02/02 09:24:02;;;;;;;61.50;57.40;;;;;;;10.94;100.00;102391.83;1840366;76;85584;-67
2022/02/02 09:35:46;;;;;;;58.30;54.37;;;;;;;11.30;100.00;102389.65;1885704;74;85682;-79
2022/02/02 09:41:38;;;;;;;59.23;55.43;;;;;;;11.37;100.00;102386.17;1912707;74;86391;-78
2022/02/02 09:47:28;;;;;;;59.50;55.60;;;;;;;11.36;100.00;102377.52;1916970;73;85510;-77
2022/02/02 09:53:18;;;;;;;57.87;54.03;;;;;;;11.41;100.00;102387.34;1979632;71;39756;-80
2022/02/02 09:59:04;;;;;;;59.03;55.33;;;;;;;11.46;100.00;102407.46;1816766;76;85270;-70
2022/02/02 10:05:03;;;;;;;60.03;56.33;;;;;;;11.51;100.00;102402.80;1841236;77;86385;-70
2022/02/02 10:16:45;;;;;;;58.73;54.93;;;;;;;11.64;100.00;102392.71;1841155;76;86277;-78
2022/02/02 10:22:30;;;;;;;59.70;56.00;;;;;;;11.65;100.00;102392.17;1883722;73;86096;-77
2022/02/02 10:28:16;;;;;;;59.17;55.57;;;;;;;11.66;100.00;102384.12;1867190;75;86304;-77
2022/02/02 10:34:13;;;;;;;58.40;54.70;;;;;;;11.76;100.00;102402.41;1985098;71;39377;-77
2022/02/02 10:39:57;;;;;;;57.07;53.57;;;;;;;11.73;100.00;102400.11;1973614;72;86207;-78
2022/02/02 10:45:52;;;;;;;57.50;53.83;;;;;;;11.73;100.00;102397.33;1844689;75;86076;-75
2022/02/02 10:51:42;;;;;;;56.40;52.90;;;;;;;11.74;100.00;102408.22;1870785;75;85636;-78
2022/02/02 11:00:50;;;;;;;57.80;54.27;;;;;;;11.74;100.00;102423.53;1902400;73;86087;-79
2022/02/02 11:06:38;;;;;;;54.87;51.57;;;;;;;11.76;100.00;102423.29;1869980;75;86017;-77
2022/02/02 11:12:32;;;;;;;55.53;52.23;;;;;;;11.91;100.00;102405.95;1921194;71;86003;-73
2022/02/02 11:18:25;;;;;;;57.23;53.73;;;;;;;11.92;100.00;102411.27;1924986;73;85342;-75
2022/02/02 11:24:17;;;;;;;54.17;50.73;;;;;;;12.01;100.00;102400.54;1981742;71;39513;-77
2022/02/02 11:30:02;;;;;;;55.77;52.47;;;;;;;12.06;100.00;102408.42;1986916;71;39592;-79
2022/02/02 11:35:58;;;;;;;54.40;51.10;;;;;;;12.06;100.00;102408.97;1953613;72;87182;-69
2022/02/02 11:41:59;;;;;;;56.50;53.10;;;;;;;12.10;100.00;102401.78;1890621;74;86466;-75
2022/02/02 11:47:49;;;;;;;54.07;50.87;;;;;;;12.16;100.00;102398.80;1824916;76;86783;-70
2022/02/02 11:50:33;;;;;;;56.13;52.93;;;;;;;12.15;100.00;102399.07;1786070;77;938959;-69
2022/02/02 11:53:03;;;;;;;57.37;53.97;;;;;;;12.17;100.00;102394.91;1748324;78;940798;-75
2022/02/02 11:59:51;;;;;;;57.57;54.27;;;;;;;12.35;100.00;102395.70;1980605;71;39509;-69
2022/02/02 12:05:50;;;;;;;56.13;52.93;;;;;;;12.44;100.00;102385.78;1933438;72;85656;-78
2022/02/02 12:19:09;;;;;;;54.93;51.83;;;;;;;12.46;100.00;102385.80;1931974;72;86660;-76
2022/02/02 12:44:39;;;;;;;57.17;53.77;;;;;;;12.49;100.00;102351.01;1909784;74;85424;-77
2022/02/02 12:45:38;;;;;;;53.90;50.73;;;;;;;12.55;100.00;102359.15;1980356;71;39726;-77
2022/02/02 12:57:12;;;;;;;53.90;50.80;;;;;;;12.69;100.00;102353.45;1962009;70;40433;-70
2022/02/02 13:06:15;;;;;;;53.40;50.40;;;;;;;12.72;100.00;102359.89;1942316;71;39573;-79
2022/02/02 13:12:21;;;;;;;53.70;50.50;;;;;;;12.67;100.00;102359.84;1938071;71;39503;-78
2022/02/02 13:18:19;;;;;;;55.20;52.10;;;;;;;12.65;100.00;102336.97;1979794;71;39583;-79
2022/02/02 13:24:11;;;;;;;53.37;50.37;;;;;;;12.72;100.00;102338.14;1986885;71;39686;-77
2022/02/02 13:29:54;;;;;;;53.17;50.17;;;;;;;12.84;100.00;102333.23;1971778;72;86153;-79
2022/02/02 13:32:32;;;;;;;52.37;49.37;;;;;;;12.97;100.00;102336.14;1890015;73;938989;-73
2022/02/02 13:38:24;;;;;;;53.80;50.53;;;;;;;12.99;100.00;102326.42;1917322;72;86255;-79
2022/02/02 13:47:35;;;;;;;50.03;47.23;;;;;;;12.94;100.00;102338.91;1984560;70;86585;-69
2022/02/02 13:53:10;;;;;;;51.70;48.60;;;;;;;12.83;100.00;102337.15;1802825;78;86698;-68
2022/02/02 13:59:02;;;;;;;52.60;49.30;;;;;;;12.83;100.00;102331.58;1834242;76;86441;-69
2022/02/02 14:04:48;;;;;;;55.93;52.60;;;;;;;12.71;100.00;102335.89;1814592;77;86702;-78
2022/02/02 14:10:41;;;;;;;57.80;54.50;;;;;;;12.70;100.00;102315.27;1925544;73;86316;-69
2022/02/02 14:34:41;;;;;;;54.90;51.60;;;;;;;12.53;100.00;102276.91;1809826;78;85716;-78
2022/02/02 14:40:32;;;;;;;56.83;53.40;;;;;;;12.45;100.00;102280.98;1920257;73;85371;-79
2022/02/02 14:46:15;;;;;;;55.77;52.50;;;;;;;12.41;100.00;102266.48;1974785;71;39656;-79
2022/02/02 14:52:05;;;;;;;54.43;51.23;;;;;;;12.44;100.00;102261.76;1842386;76;86173;-70
2022/02/02 15:28:04;;;;;;;58.77;55.10;;;;;;;12.39;100.00;102240.25;1811555;78;86398;-75
2022/02/02 15:33:50;;;;;;;57.47;53.97;;;;;;;12.35;100.00;102238.26;1882388;74;85321;-76
2022/02/02 15:39:36;;;;;;;60.27;56.47;;;;;;;12.39;100.00;102247.22;1868557;75;86710;-68
2022/02/02 16:03:42;;;;;;;60.97;56.97;;;;;;;12.24;100.00;102237.30;1904062;74;86805;-69
2022/02/02 16:09:28;;;;;;;58.97;55.33;;;;;;;12.26;100.00;102239.28;1910556;72;86192;-74
2022/02/02 16:15:20;;;;;;;59.50;55.70;;;;;;;12.29;100.00;102240.98;1986059;71;39392;-73
2022/02/02 16:39:25;;;;;;;64.57;59.97;;;;;;;11.96;100.00;102244.51;1906779;72;85490;-74
2022/02/02 16:45:12;;;;;;;63.10;58.90;;;;;;;11.52;100.00;102245.02;1939834;71;39384;-79
2022/02/02 16:50:58;;;;;;;64.47;60.37;;;;;;;11.30;100.00;102247.23;1839461;76;86318;-76
2022/02/02 16:56:57;;;;;;;67.27;62.77;;;;;;;11.07;100.00;102229.38;1797301;78;86150;-76
2022/02/02 17:32:53;;;;;;;68.23;63.30;;;;;;;10.03;100.00;102244.73;1841372;75;86299;-70
2022/02/02 17:38:46;;;;;;;65.73;61.13;;;;;;;10.34;100.00;102244.27;1878887;73;86731;-68
2022/02/02 18:21:19;;;;;;;66.27;61.50;;;;;;;10.01;100.00;102245.55;1912848;74;86741;-69
2022/02/02 18:27:10;;;;;;;65.90;60.90;;;;;;;9.98;100.00;102255.19;1986751;70;39588;-75
2022/02/02 18:33:02;;;;;;;64.60;60.00;;;;;;;10.13;100.00;102251.04;1823341;76;85565;-69
2022/02/02 18:57:17;;;;;;;67.03;62.17;;;;;;;10.65;100.00;102228.14;1985673;71;39650;-68
2022/02/02 20:07:07;;;;;;;63.90;59.50;;;;;;;11.48;100.00;102177.91;1836924;76;86438;-69
2022/02/02 20:12:46;;;;;;;65.00;60.83;;;;;;;11.47;100.00;102170.66;1875309;74;86340;-69
2022/02/02 20:18:35;;;;;;;65.40;61.37;;;;;;;11.43;100.00;102170.89;1813109;79;86644;-74
2022/02/02 20:24:20;;;;;;;67.50;63.30;;;;;;;11.42;100.00;102152.54;1936155;71;85712;-74
2022/02/02 20:30:04;;;;;;;66.87;62.40;;;;;;;11.36;100.00;102148.00;1979488;71;39609;-78
2022/02/02 20:35:49;;;;;;;65.70;61.00;;;;;;;11.26;100.00;102150.64;1840157;76;86107;-75
2022/02/02 20:41:35;;;;;;;63.20;58.93;;;;;;;11.23;100.00;102145.60;1888675;75;86475;-69
2022/02/02 21:05:33;;;;;;;56.20;52.90;;;;;;;11.09;100.00;102140.11;1909067;72;85354;-75
2022/02/02 21:11:21;;;;;;;59.83;56.43;;;;;;;11.06;100.00;102123.95;1914611;72;85498;-74
2022/02/02 21:17:03;;;;;;;58.87;55.57;;;;;;;11.08;100.00;102115.63;1981870;71;39712;-71
2022/02/02 21:22:58;;;;;;;60.60;56.90;;;;;;;10.99;100.00;102138.06;1903978;72;86393;-75
2022/02/02 21:28:41;;;;;;;59.07;55.70;;;;;;;11.02;100.00;102133.91;1833980;76;86801;-68
2022/02/02 21:34:26;;;;;;;57.90;54.50;;;;;;;10.95;100.00;102120.21;1919349;74;86404;-67
2022/02/02 21:40:22;;;;;;;59.97;56.43;;;;;;;10.95;100.00;102131.33;1928562;71;39659;-66
2022/02/02 21:46:05;;;;;;;53.73;50.40;;;;;;;10.97;100.00;102129.12;1980776;71;39994;-76
2022/02/02 21:51:57;;;;;;;56.17;53.07;;;;;;;10.92;100.00;102133.20;1829298;76;86586;-75
2022/02/02 21:57:39;;;;;;;57.10;53.60;;;;;;;10.99;100.00;102135.83;1880965;73;86285;-79
2022/02/02 22:03:26;;;;;;;52.13;49.00;;;;;;;10.93;100.00;102128.80;1950535;72;86523;-76
2022/02/02 22:09:09;;;;;;;55.03;51.40;;;;;;;10.87;100.00;102127.03;1983424;71;39642;-79
2022/02/02 22:14:54;;;;;;;53.17;50.07;;;;;;;10.83;100.00;102120.84;1836431;76;86351;-79
2022/02/02 22:20:39;;;;;;;54.63;51.13;;;;;;;10.75;100.00;102106.84;1880047;73;86058;-80
2022/02/02 22:26:23;;;;;;;56.70;52.87;;;;;;;10.74;100.00;102102.95;1933355;73;86174;-70
2022/02/02 22:32:09;;;;;;;53.47;49.97;;;;;;;10.73;100.00;102103.50;1986723;70;39452;-73
2022/02/02 22:37:53;;;;;;;52.77;49.60;;;;;;;10.71;100.00;102104.28;1954586;72;86326;-74
2022/02/02 22:43:44;;;;;;;53.17;50.10;;;;;;;10.69;100.00;102089.82;1822117;78;86308;-73
2022/02/02 22:49:22;;;;;;;53.83;50.70;;;;;;;10.63;100.00;102081.10;1931699;71;85393;-70
2022/02/02 22:55:12;;;;;;;54.60;51.20;;;;;;;10.70;100.00;102069.25;1987942;71;39540;-69
2022/02/02 23:00:55;;;;;;;53.17;49.97;;;;;;;10.76;100.00;102061.83;1826598;75;86314;-75
2022/02/02 23:06:38;;;;;;;55.57;52.63;;;;;;;10.77;100.00;102060.20;1871529;74;86657;-76
2022/02/02 23:12:25;;;;;;;55.23;51.93;;;;;;;10.81;100.00;102057.19;1936684;73;85957;-79
2022/02/02 23:18:15;;;;;;;55.37;52.13;;;;;;;10.80;100.00;102046.32;1923700;71;40227;-76
2022/02/02 23:24:03;;;;;;;56.33;52.97;;;;;;;10.72;100.00;102043.98;1802836;77;86340;-78
2022/02/02 23:29:52;;;;;;;57.73;54.17;;;;;;;10.77;100.00;102029.63;1893618;74;86201;-75
2022/02/02 23:35:35;;;;;;;56.93;53.73;;;;;;;10.57;100.00;102026.55;1884621;73;85830;-77
2022/02/02 23:47:27;;;;;;;61.17;57.27;;;;;;;10.56;100.00;102018.48;1947130;72;86210;-75
2022/02/02 23:53:14;;;;;;;63.33;59.27;;;;;;;10.59;100.00;102018.81;1815576;78;85617;-70
2022/02/02 23:55:47;;;;;;;60.87;56.83;;;;;;;10.58;100.00;102024.61;1784633;78;936896;-70
